sensor_id;sensor_type;location;lat;lon;timestamp;P1;durP1;ratioP1;P2;durP2;ratioP2
72235;SDS011;60146;52.498;13.462;2023-12-20T00:00:50;6.50;;;2.97;;
72235;SDS011;60146;52.498;13.462;2023-12-20T00:03:15;5.40;;;3.27;;
72235;SDS011;60146;52.498;13.462;2023-12-20T00:05:40;6.70;;;3.40;;
72235;SDS011;60146;52.498;13.462;2023-12-20T00:08:06;8.50;;;3.30;;
72235;SDS011;60146;52.498;13.462;2023-12-20T00:10:31;6.07;;;3.20;;
72235;SDS011;60146;52.498;13.462;2023-12-20T00:12:57;5.50;;;3.37;;
72235;SDS011;60146;52.498;13.462;2023-12-20T00:15:22;6.10;;;3.17;;
72235;SDS011;60146;52.498;13.462;2023-12-20T00:17:48;6.70;;;3.40;;
72235;SDS011;60146;52.498;13.462;2023-12-20T00:20:14;6.57;;;3.13;;
72235;SDS011;60146;52.498;13.462;2023-12-20T00:22:39;6.53;;;3.57;;
72235;SDS011;60146;52.498;13.462;2023-12-20T00:25:05;6.43;;;3.17;;
72235;SDS011;60146;52.498;13.462;2023-12-20T00:27:30;5.40;;;2.80;;
72235;SDS011;60146;52.498;13.462;2023-12-20T00:29:55;6.13;;;3.27;;
72235;SDS011;60146;52.498;13.462;2023-12-20T00:32:21;6.53;;;3.40;;
72235;SDS011;60146;52.498;13.462;2023-12-20T00:34:46;7.53;;;3.40;;
72235;SDS011;60146;52.498;13.462;2023-12-20T00:37:11;6.00;;;3.23;;
72235;SDS011;60146;52.498;13.462;2023-12-20T00:39:37;6.70;;;3.37;;
72235;SDS011;60146;52.498;13.462;2023-12-20T00:42:02;6.27;;;3.07;;
72235;SDS011;60146;52.498;13.462;2023-12-20T00:44:27;8.20;;;3.87;;
72235;SDS011;60146;52.498;13.462;2023-12-20T00:46:53;5.50;;;2.90;;
72235;SDS011;60146;52.498;13.462;2023-12-20T00:49:18;5.03;;;2.80;;
72235;SDS011;60146;52.498;13.462;2023-12-20T00:51:43;6.53;;;3.37;;
72235;SDS011;60146;52.498;13.462;2023-12-20T00:54:09;6.23;;;3.30;;
72235;SDS011;60146;52.498;13.462;2023-12-20T00:56:34;5.83;;;3.00;;
72235;SDS011;60146;52.498;13.462;2023-12-20T00:59:00;5.30;;;2.90;;
72235;SDS011;60146;52.498;13.462;2023-12-20T01:01:25;5.53;;;3.00;;
72235;SDS011;60146;52.498;13.462;2023-12-20T01:03:51;6.20;;;3.17;;
72235;SDS011;60146;52.498;13.462;2023-12-20T01:06:16;7.13;;;3.10;;
72235;SDS011;60146;52.498;13.462;2023-12-20T01:08:42;5.60;;;2.80;;
72235;SDS011;60146;52.498;13.462;2023-12-20T01:11:07;5.23;;;2.73;;
72235;SDS011;60146;52.498;13.462;2023-12-20T01:13:32;6.10;;;2.90;;
72235;SDS011;60146;52.498;13.462;2023-12-20T01:15:58;5.13;;;2.80;;
72235;SDS011;60146;52.498;13.462;2023-12-20T01:18:23;5.57;;;3.03;;
72235;SDS011;60146;52.498;13.462;2023-12-20T01:20:48;5.70;;;2.90;;
72235;SDS011;60146;52.498;13.462;2023-12-20T01:23:14;5.90;;;3.20;;
72235;SDS011;60146;52.498;13.462;2023-12-20T01:25:39;6.00;;;2.93;;
72235;SDS011;60146;52.498;13.462;2023-12-20T01:28:04;4.97;;;2.90;;
72235;SDS011;60146;52.498;13.462;2023-12-20T01:30:30;6.00;;;3.00;;
72235;SDS011;60146;52.498;13.462;2023-12-20T01:32:55;5.00;;;2.97;;
72235;SDS011;60146;52.498;13.462;2023-12-20T01:35:20;5.43;;;2.90;;
72235;SDS011;60146;52.498;13.462;2023-12-20T01:37:46;6.23;;;3.37;;
72235;SDS011;60146;52.498;13.462;2023-12-20T01:40:11;6.60;;;3.00;;
72235;SDS011;60146;52.498;13.462;2023-12-20T01:42:36;7.90;;;3.10;;
72235;SDS011;60146;52.498;13.462;2023-12-20T01:45:02;5.73;;;3.03;;
72235;SDS011;60146;52.498;13.462;2023-12-20T01:47:28;7.27;;;3.07;;
72235;SDS011;60146;52.498;13.462;2023-12-20T01:49:53;6.40;;;3.20;;
72235;SDS011;60146;52.498;13.462;2023-12-20T01:52:19;5.00;;;2.60;;
72235;SDS011;60146;52.498;13.462;2023-12-20T01:54:45;4.27;;;2.40;;
72235;SDS011;60146;52.498;13.462;2023-12-20T01:57:12;4.97;;;2.97;;
72235;SDS011;60146;52.498;13.462;2023-12-20T01:59:39;4.30;;;2.30;;
72235;SDS011;60146;52.498;13.462;2023-12-20T02:02:05;5.10;;;2.73;;
72235;SDS011;60146;52.498;13.462;2023-12-20T02:04:30;6.30;;;2.90;;
72235;SDS011;60146;52.498;13.462;2023-12-20T02:06:56;4.50;;;2.60;;
72235;SDS011;60146;52.498;13.462;2023-12-20T02:09:23;4.80;;;2.67;;
72235;SDS011;60146;52.498;13.462;2023-12-20T02:11:49;5.30;;;2.40;;
72235;SDS011;60146;52.498;13.462;2023-12-20T02:14:14;5.53;;;2.40;;
72235;SDS011;60146;52.498;13.462;2023-12-20T02:16:40;5.00;;;2.50;;
72235;SDS011;60146;52.498;13.462;2023-12-20T02:19:05;4.47;;;2.20;;
72235;SDS011;60146;52.498;13.462;2023-12-20T02:21:37;3.33;;;1.80;;
72235;SDS011;60146;52.498;13.462;2023-12-20T02:24:03;3.47;;;1.70;;
72235;SDS011;60146;52.498;13.462;2023-12-20T02:26:28;3.83;;;1.60;;
72235;SDS011;60146;52.498;13.462;2023-12-20T02:28:54;6.33;;;2.80;;
72235;SDS011;60146;52.498;13.462;2023-12-20T02:31:23;2.83;;;1.60;;
72235;SDS011;60146;52.498;13.462;2023-12-20T02:33:48;3.87;;;1.63;;
72235;SDS011;60146;52.498;13.462;2023-12-20T02:36:14;3.17;;;1.90;;
72235;SDS011;60146;52.498;13.462;2023-12-20T02:38:39;4.00;;;1.93;;
72235;SDS011;60146;52.498;13.462;2023-12-20T02:41:05;3.33;;;2.07;;
72235;SDS011;60146;52.498;13.462;2023-12-20T02:43:30;3.43;;;1.90;;
72235;SDS011;60146;52.498;13.462;2023-12-20T02:45:55;3.50;;;1.90;;
72235;SDS011;60146;52.498;13.462;2023-12-20T02:48:21;4.30;;;2.30;;
72235;SDS011;60146;52.498;13.462;2023-12-20T02:50:46;4.27;;;1.90;;
72235;SDS011;60146;52.498;13.462;2023-12-20T02:53:13;4.93;;;2.70;;
72235;SDS011;60146;52.498;13.462;2023-12-20T02:55:39;6.10;;;2.70;;
72235;SDS011;60146;52.498;13.462;2023-12-20T02:58:04;5.00;;;2.50;;
72235;SDS011;60146;52.498;13.462;2023-12-20T03:00:30;5.97;;;2.70;;
72235;SDS011;60146;52.498;13.462;2023-12-20T03:02:55;5.33;;;2.77;;
72235;SDS011;60146;52.498;13.462;2023-12-20T03:05:20;5.67;;;2.50;;
72235;SDS011;60146;52.498;13.462;2023-12-20T03:07:46;4.50;;;2.10;;
72235;SDS011;60146;52.498;13.462;2023-12-20T03:10:11;4.27;;;2.07;;
72235;SDS011;60146;52.498;13.462;2023-12-20T03:12:36;4.17;;;2.20;;
72235;SDS011;60146;52.498;13.462;2023-12-20T03:15:02;5.60;;;2.40;;
72235;SDS011;60146;52.498;13.462;2023-12-20T03:17:27;3.87;;;2.00;;
72235;SDS011;60146;52.498;13.462;2023-12-20T03:19:53;5.60;;;2.50;;
72235;SDS011;60146;52.498;13.462;2023-12-20T03:22:18;10.27;;;2.53;;
72235;SDS011;60146;52.498;13.462;2023-12-20T03:24:43;5.07;;;2.37;;
72235;SDS011;60146;52.498;13.462;2023-12-20T03:27:08;6.27;;;2.50;;
72235;SDS011;60146;52.498;13.462;2023-12-20T03:29:34;6.70;;;1.70;;
72235;SDS011;60146;52.498;13.462;2023-12-20T03:31:59;6.73;;;2.30;;
72235;SDS011;60146;52.498;13.462;2023-12-20T03:34:24;3.93;;;2.10;;
72235;SDS011;60146;52.498;13.462;2023-12-20T03:36:50;5.37;;;2.10;;
72235;SDS011;60146;52.498;13.462;2023-12-20T03:39:15;3.80;;;1.60;;
72235;SDS011;60146;52.498;13.462;2023-12-20T03:41:40;3.57;;;1.70;;
72235;SDS011;60146;52.498;13.462;2023-12-20T03:44:06;8.03;;;1.90;;
72235;SDS011;60146;52.498;13.462;2023-12-20T03:46:31;5.87;;;1.50;;
72235;SDS011;60146;52.498;13.462;2023-12-20T03:48:56;4.73;;;1.40;;
72235;SDS011;60146;52.498;13.462;2023-12-20T03:51:22;2.43;;;1.40;;
72235;SDS011;60146;52.498;13.462;2023-12-20T03:53:47;6.47;;;1.30;;
72235;SDS011;60146;52.498;13.462;2023-12-20T03:56:12;4.80;;;1.20;;
72235;SDS011;60146;52.498;13.462;2023-12-20T03:58:38;6.50;;;2.00;;
72235;SDS011;60146;52.498;13.462;2023-12-20T04:01:03;7.60;;;1.40;;
72235;SDS011;60146;52.498;13.462;2023-12-20T04:03:35;6.67;;;1.10;;
72235;SDS011;60146;52.498;13.462;2023-12-20T04:06:00;4.00;;;1.30;;
72235;SDS011;60146;52.498;13.462;2023-12-20T04:08:25;8.43;;;1.57;;
72235;SDS011;60146;52.498;13.462;2023-12-20T04:10:51;7.43;;;1.40;;
72235;SDS011;60146;52.498;13.462;2023-12-20T04:13:16;5.87;;;1.20;;
72235;SDS011;60146;52.498;13.462;2023-12-20T04:15:41;9.20;;;1.40;;
72235;SDS011;60146;52.498;13.462;2023-12-20T04:18:07;9.53;;;1.40;;
72235;SDS011;60146;52.498;13.462;2023-12-20T04:20:32;3.07;;;1.10;;
72235;SDS011;60146;52.498;13.462;2023-12-20T04:22:57;4.20;;;1.30;;
72235;SDS011;60146;52.498;13.462;2023-12-20T04:25:22;3.53;;;1.37;;
72235;SDS011;60146;52.498;13.462;2023-12-20T04:27:48;6.20;;;1.20;;
72235;SDS011;60146;52.498;13.462;2023-12-20T04:30:13;12.33;;;1.67;;
72235;SDS011;60146;52.498;13.462;2023-12-20T04:32:38;6.87;;;1.10;;
72235;SDS011;60146;52.498;13.462;2023-12-20T04:35:04;5.50;;;1.03;;
72235;SDS011;60146;52.498;13.462;2023-12-20T04:37:29;5.53;;;0.80;;
72235;SDS011;60146;52.498;13.462;2023-12-20T04:39:55;4.60;;;1.10;;
72235;SDS011;60146;52.498;13.462;2023-12-20T04:42:20;5.63;;;1.17;;
72235;SDS011;60146;52.498;13.462;2023-12-20T04:44:45;2.73;;;1.00;;
72235;SDS011;60146;52.498;13.462;2023-12-20T04:47:11;5.73;;;1.13;;
72235;SDS011;60146;52.498;13.462;2023-12-20T04:49:36;5.30;;;1.07;;
72235;SDS011;60146;52.498;13.462;2023-12-20T04:52:01;3.93;;;1.10;;
72235;SDS011;60146;52.498;13.462;2023-12-20T04:54:27;6.07;;;1.30;;
72235;SDS011;60146;52.498;13.462;2023-12-20T04:56:52;4.17;;;1.00;;
72235;SDS011;60146;52.498;13.462;2023-12-20T04:59:18;7.37;;;1.47;;
72235;SDS011;60146;52.498;13.462;2023-12-20T05:01:43;4.87;;;1.20;;
72235;SDS011;60146;52.498;13.462;2023-12-20T05:04:09;3.53;;;1.10;;
72235;SDS011;60146;52.498;13.462;2023-12-20T05:06:34;9.30;;;1.50;;
72235;SDS011;60146;52.498;13.462;2023-12-20T05:08:59;6.77;;;1.17;;
72235;SDS011;60146;52.498;13.462;2023-12-20T05:11:25;4.60;;;1.37;;
72235;SDS011;60146;52.498;13.462;2023-12-20T05:13:50;10.60;;;1.40;;
72235;SDS011;60146;52.498;13.462;2023-12-20T05:16:15;8.17;;;1.50;;
72235;SDS011;60146;52.498;13.462;2023-12-20T05:18:42;9.27;;;1.57;;
72235;SDS011;60146;52.498;13.462;2023-12-20T05:21:08;7.27;;;1.30;;
72235;SDS011;60146;52.498;13.462;2023-12-20T05:23:33;4.90;;;1.30;;
72235;SDS011;60146;52.498;13.462;2023-12-20T05:25:59;5.10;;;1.57;;
72235;SDS011;60146;52.498;13.462;2023-12-20T05:28:25;13.00;;;1.70;;
72235;SDS011;60146;52.498;13.462;2023-12-20T05:30:50;8.57;;;1.40;;
72235;SDS011;60146;52.498;13.462;2023-12-20T05:33:16;5.27;;;1.10;;
72235;SDS011;60146;52.498;13.462;2023-12-20T05:35:41;3.87;;;1.03;;
72235;SDS011;60146;52.498;13.462;2023-12-20T05:38:07;6.47;;;1.47;;
72235;SDS011;60146;52.498;13.462;2023-12-20T05:40:32;5.20;;;1.40;;
72235;SDS011;60146;52.498;13.462;2023-12-20T05:42:57;5.23;;;1.23;;
72235;SDS011;60146;52.498;13.462;2023-12-20T05:45:22;8.50;;;1.20;;
72235;SDS011;60146;52.498;13.462;2023-12-20T05:47:48;5.37;;;1.30;;
72235;SDS011;60146;52.498;13.462;2023-12-20T05:50:13;6.33;;;1.10;;
72235;SDS011;60146;52.498;13.462;2023-12-20T05:52:38;5.77;;;1.20;;
72235;SDS011;60146;52.498;13.462;2023-12-20T05:55:04;10.23;;;1.77;;
72235;SDS011;60146;52.498;13.462;2023-12-20T05:57:29;4.00;;;1.10;;
72235;SDS011;60146;52.498;13.462;2023-12-20T05:59:55;6.13;;;1.20;;
72235;SDS011;60146;52.498;13.462;2023-12-20T06:02:20;9.27;;;1.60;;
72235;SDS011;60146;52.498;13.462;2023-12-20T06:04:45;6.17;;;1.30;;
72235;SDS011;60146;52.498;13.462;2023-12-20T06:07:11;6.73;;;1.43;;
72235;SDS011;60146;52.498;13.462;2023-12-20T06:09:37;7.20;;;1.20;;
72235;SDS011;60146;52.498;13.462;2023-12-20T06:12:03;9.97;;;1.50;;
72235;SDS011;60146;52.498;13.462;2023-12-20T06:14:28;3.90;;;1.20;;
72235;SDS011;60146;52.498;13.462;2023-12-20T06:16:55;10.97;;;1.40;;
72235;SDS011;60146;52.498;13.462;2023-12-20T06:19:21;2.50;;;1.17;;
72235;SDS011;60146;52.498;13.462;2023-12-20T06:21:46;3.30;;;1.30;;
72235;SDS011;60146;52.498;13.462;2023-12-20T06:24:12;5.67;;;1.40;;
72235;SDS011;60146;52.498;13.462;2023-12-20T06:26:37;5.27;;;1.30;;
72235;SDS011;60146;52.498;13.462;2023-12-20T06:29:04;4.87;;;1.30;;
72235;SDS011;60146;52.498;13.462;2023-12-20T06:31:29;5.60;;;1.10;;
72235;SDS011;60146;52.498;13.462;2023-12-20T06:33:55;6.03;;;1.20;;
72235;SDS011;60146;52.498;13.462;2023-12-20T06:36:22;7.63;;;1.40;;
72235;SDS011;60146;52.498;13.462;2023-12-20T06:38:48;5.87;;;1.30;;
72235;SDS011;60146;52.498;13.462;2023-12-20T06:41:14;8.70;;;1.43;;
72235;SDS011;60146;52.498;13.462;2023-12-20T06:43:40;4.80;;;1.10;;
72235;SDS011;60146;52.498;13.462;2023-12-20T06:46:06;4.70;;;1.23;;
72235;SDS011;60146;52.498;13.462;2023-12-20T06:48:31;4.57;;;1.17;;
72235;SDS011;60146;52.498;13.462;2023-12-20T06:50:57;14.63;;;1.70;;
72235;SDS011;60146;52.498;13.462;2023-12-20T06:53:24;7.13;;;1.70;;
72235;SDS011;60146;52.498;13.462;2023-12-20T06:55:49;9.17;;;1.70;;
72235;SDS011;60146;52.498;13.462;2023-12-20T06:58:15;5.30;;;1.60;;
72235;SDS011;60146;52.498;13.462;2023-12-20T07:00:41;2.33;;;1.00;;
72235;SDS011;60146;52.498;13.462;2023-12-20T07:03:06;7.03;;;1.30;;
72235;SDS011;60146;52.498;13.462;2023-12-20T07:05:32;10.63;;;1.50;;
72235;SDS011;60146;52.498;13.462;2023-12-20T07:07:58;5.13;;;1.37;;
72235;SDS011;60146;52.498;13.462;2023-12-20T07:10:23;5.93;;;1.20;;
72235;SDS011;60146;52.498;13.462;2023-12-20T07:12:49;8.63;;;1.50;;
72235;SDS011;60146;52.498;13.462;2023-12-20T07:15:14;9.77;;;1.40;;
72235;SDS011;60146;52.498;13.462;2023-12-20T07:17:39;8.47;;;1.50;;
72235;SDS011;60146;52.498;13.462;2023-12-20T07:20:05;13.73;;;2.07;;
72235;SDS011;60146;52.498;13.462;2023-12-20T07:22:34;10.07;;;1.50;;
72235;SDS011;60146;52.498;13.462;2023-12-20T07:25:00;5.70;;;1.43;;
72235;SDS011;60146;52.498;13.462;2023-12-20T07:27:25;8.43;;;1.43;;
72235;SDS011;60146;52.498;13.462;2023-12-20T07:29:51;5.13;;;1.40;;
72235;SDS011;60146;52.498;13.462;2023-12-20T07:32:16;5.60;;;1.70;;
72235;SDS011;60146;52.498;13.462;2023-12-20T07:34:42;4.53;;;1.53;;
72235;SDS011;60146;52.498;13.462;2023-12-20T07:37:07;8.93;;;1.60;;
72235;SDS011;60146;52.498;13.462;2023-12-20T07:39:35;5.50;;;1.80;;
72235;SDS011;60146;52.498;13.462;2023-12-20T07:42:01;8.27;;;1.43;;
72235;SDS011;60146;52.498;13.462;2023-12-20T07:44:26;10.37;;;1.50;;
72235;SDS011;60146;52.498;13.462;2023-12-20T07:46:52;8.87;;;1.47;;
72235;SDS011;60146;52.498;13.462;2023-12-20T07:49:17;6.20;;;1.10;;
72235;SDS011;60146;52.498;13.462;2023-12-20T07:51:44;4.83;;;1.60;;
72235;SDS011;60146;52.498;13.462;2023-12-20T07:54:09;7.67;;;1.70;;
72235;SDS011;60146;52.498;13.462;2023-12-20T07:56:34;7.90;;;1.20;;
72235;SDS011;60146;52.498;13.462;2023-12-20T07:59:00;7.93;;;1.43;;
72235;SDS011;60146;52.498;13.462;2023-12-20T08:01:26;10.40;;;1.37;;
72235;SDS011;60146;52.498;13.462;2023-12-20T08:03:51;9.23;;;1.37;;
72235;SDS011;60146;52.498;13.462;2023-12-20T08:06:17;6.73;;;1.03;;
72235;SDS011;60146;52.498;13.462;2023-12-20T08:08:43;5.00;;;1.10;;
72235;SDS011;60146;52.498;13.462;2023-12-20T08:11:08;7.40;;;1.57;;
72235;SDS011;60146;52.498;13.462;2023-12-20T08:13:34;8.77;;;1.23;;
72235;SDS011;60146;52.498;13.462;2023-12-20T08:15:59;6.43;;;1.10;;
72235;SDS011;60146;52.498;13.462;2023-12-20T08:18:24;8.77;;;1.57;;
72235;SDS011;60146;52.498;13.462;2023-12-20T08:20:50;2.40;;;1.13;;
72235;SDS011;60146;52.498;13.462;2023-12-20T08:23:17;4.80;;;1.23;;
72235;SDS011;60146;52.498;13.462;2023-12-20T08:25:43;8.33;;;1.30;;
72235;SDS011;60146;52.498;13.462;2023-12-20T08:28:08;3.73;;;1.10;;
72235;SDS011;60146;52.498;13.462;2023-12-20T08:30:34;11.10;;;1.33;;
72235;SDS011;60146;52.498;13.462;2023-12-20T08:32:59;7.03;;;1.40;;
72235;SDS011;60146;52.498;13.462;2023-12-20T08:35:26;4.80;;;1.40;;
72235;SDS011;60146;52.498;13.462;2023-12-20T08:37:51;5.57;;;1.23;;
72235;SDS011;60146;52.498;13.462;2023-12-20T08:40:16;8.97;;;1.60;;
72235;SDS011;60146;52.498;13.462;2023-12-20T08:42:42;2.90;;;1.30;;
72235;SDS011;60146;52.498;13.462;2023-12-20T08:45:07;7.33;;;1.00;;
72235;SDS011;60146;52.498;13.462;2023-12-20T08:47:33;3.70;;;1.03;;
72235;SDS011;60146;52.498;13.462;2023-12-20T08:49:58;3.00;;;1.10;;
72235;SDS011;60146;52.498;13.462;2023-12-20T08:52:25;7.90;;;1.67;;
72235;SDS011;60146;52.498;13.462;2023-12-20T08:54:54;9.00;;;1.87;;
72235;SDS011;60146;52.498;13.462;2023-12-20T08:57:20;7.60;;;1.07;;
72235;SDS011;60146;52.498;13.462;2023-12-20T08:59:52;6.20;;;1.63;;
72235;SDS011;60146;52.498;13.462;2023-12-20T09:02:17;5.70;;;1.00;;
72235;SDS011;60146;52.498;13.462;2023-12-20T09:04:43;7.87;;;1.40;;
72235;SDS011;60146;52.498;13.462;2023-12-20T09:07:41;4.23;;;1.30;;
72235;SDS011;60146;52.498;13.462;2023-12-20T09:10:00;6.80;;;1.13;;
72235;SDS011;60146;52.498;13.462;2023-12-20T09:12:25;6.33;;;1.07;;
72235;SDS011;60146;52.498;13.462;2023-12-20T09:14:51;6.27;;;1.20;;
72235;SDS011;60146;52.498;13.462;2023-12-20T09:17:17;7.13;;;1.57;;
72235;SDS011;60146;52.498;13.462;2023-12-20T09:19:44;5.23;;;1.10;;
72235;SDS011;60146;52.498;13.462;2023-12-20T09:22:10;8.17;;;1.60;;
72235;SDS011;60146;52.498;13.462;2023-12-20T09:24:35;2.47;;;1.20;;
72235;SDS011;60146;52.498;13.462;2023-12-20T09:27:01;4.60;;;1.53;;
72235;SDS011;60146;52.498;13.462;2023-12-20T09:29:27;9.73;;;1.97;;
72235;SDS011;60146;52.498;13.462;2023-12-20T09:31:52;9.47;;;1.60;;
72235;SDS011;60146;52.498;13.462;2023-12-20T09:34:18;9.00;;;1.70;;
72235;SDS011;60146;52.498;13.462;2023-12-20T09:36:43;6.30;;;1.77;;
72235;SDS011;60146;52.498;13.462;2023-12-20T09:39:15;4.70;;;1.70;;
72235;SDS011;60146;52.498;13.462;2023-12-20T09:41:44;6.67;;;1.53;;
72235;SDS011;60146;52.498;13.462;2023-12-20T09:44:15;6.53;;;1.73;;
72235;SDS011;60146;52.498;13.462;2023-12-20T09:46:44;11.23;;;1.47;;
72235;SDS011;60146;52.498;13.462;2023-12-20T09:49:10;6.53;;;1.37;;
72235;SDS011;60146;52.498;13.462;2023-12-20T09:51:37;7.77;;;1.60;;
72235;SDS011;60146;52.498;13.462;2023-12-20T09:54:03;6.93;;;1.40;;
72235;SDS011;60146;52.498;13.462;2023-12-20T09:56:29;3.90;;;0.97;;
72235;SDS011;60146;52.498;13.462;2023-12-20T09:58:55;5.73;;;1.80;;
72235;SDS011;60146;52.498;13.462;2023-12-20T10:01:20;8.63;;;1.47;;
72235;SDS011;60146;52.498;13.462;2023-12-20T10:03:46;6.03;;;1.23;;
72235;SDS011;60146;52.498;13.462;2023-12-20T10:06:11;5.87;;;1.30;;
72235;SDS011;60146;52.498;13.462;2023-12-20T10:08:38;6.07;;;1.23;;
72235;SDS011;60146;52.498;13.462;2023-12-20T10:11:04;7.53;;;1.33;;
72235;SDS011;60146;52.498;13.462;2023-12-20T10:13:30;8.67;;;1.70;;
72235;SDS011;60146;52.498;13.462;2023-12-20T10:15:55;7.97;;;1.77;;
72235;SDS011;60146;52.498;13.462;2023-12-20T10:18:21;6.83;;;1.30;;
72235;SDS011;60146;52.498;13.462;2023-12-20T10:20:46;8.60;;;1.40;;
72235;SDS011;60146;52.498;13.462;2023-12-20T10:23:12;4.77;;;1.30;;
72235;SDS011;60146;52.498;13.462;2023-12-20T10:25:38;4.40;;;1.10;;
72235;SDS011;60146;52.498;13.462;2023-12-20T10:30:36;5.43;;;1.60;;
72235;SDS011;60146;52.498;13.462;2023-12-20T10:33:02;6.20;;;1.40;;
72235;SDS011;60146;52.498;13.462;2023-12-20T10:35:27;8.77;;;1.47;;
72235;SDS011;60146;52.498;13.462;2023-12-20T10:37:55;9.73;;;1.97;;
72235;SDS011;60146;52.498;13.462;2023-12-20T10:40:23;7.03;;;1.77;;
72235;SDS011;60146;52.498;13.462;2023-12-20T10:42:52;7.30;;;1.37;;
72235;SDS011;60146;52.498;13.462;2023-12-20T10:45:18;9.70;;;1.63;;
72235;SDS011;60146;52.498;13.462;2023-12-20T10:47:47;6.87;;;1.90;;
72235;SDS011;60146;52.498;13.462;2023-12-20T10:52:39;5.43;;;1.33;;
72235;SDS011;60146;52.498;13.462;2023-12-20T10:55:06;5.97;;;1.40;;
72235;SDS011;60146;52.498;13.462;2023-12-20T10:57:32;12.70;;;1.70;;
72235;SDS011;60146;52.498;13.462;2023-12-20T10:59:59;7.73;;;1.53;;
72235;SDS011;60146;52.498;13.462;2023-12-20T11:02:29;6.67;;;1.47;;
72235;SDS011;60146;52.498;13.462;2023-12-20T11:04:59;7.33;;;1.90;;
72235;SDS011;60146;52.498;13.462;2023-12-20T11:07:39;7.70;;;1.50;;
72235;SDS011;60146;52.498;13.462;2023-12-20T11:10:16;7.43;;;1.53;;
72235;SDS011;60146;52.498;13.462;2023-12-20T11:12:51;5.57;;;1.10;;
72235;SDS011;60146;52.498;13.462;2023-12-20T11:15:19;5.47;;;1.47;;
72235;SDS011;60146;52.498;13.462;2023-12-20T11:17:46;6.23;;;1.40;;
72235;SDS011;60146;52.498;13.462;2023-12-20T11:20:11;6.20;;;1.73;;
72235;SDS011;60146;52.498;13.462;2023-12-20T11:22:37;8.60;;;1.70;;
72235;SDS011;60146;52.498;13.462;2023-12-20T11:25:05;9.80;;;2.00;;
72235;SDS011;60146;52.498;13.462;2023-12-20T11:30:00;7.27;;;1.93;;
72235;SDS011;60146;52.498;13.462;2023-12-20T11:32:30;7.33;;;1.50;;
72235;SDS011;60146;52.498;13.462;2023-12-20T11:34:58;9.73;;;1.70;;
72235;SDS011;60146;52.498;13.462;2023-12-20T11:37:29;4.87;;;1.63;;
72235;SDS011;60146;52.498;13.462;2023-12-20T11:40:16;12.90;;;2.03;;
72235;SDS011;60146;52.498;13.462;2023-12-20T11:42:43;4.67;;;1.53;;
72235;SDS011;60146;52.498;13.462;2023-12-20T11:45:10;5.93;;;1.40;;
72235;SDS011;60146;52.498;13.462;2023-12-20T11:47:39;6.28;;;1.33;;
72235;SDS011;60146;52.498;13.462;2023-12-20T11:50:05;8.50;;;1.57;;
72235;SDS011;60146;52.498;13.462;2023-12-20T11:52:31;8.23;;;1.87;;
72235;SDS011;60146;52.498;13.462;2023-12-20T11:54:57;3.97;;;1.30;;
72235;SDS011;60146;52.498;13.462;2023-12-20T11:57:22;9.17;;;1.43;;
72235;SDS011;60146;52.498;13.462;2023-12-20T11:59:48;6.07;;;1.43;;
72235;SDS011;60146;52.498;13.462;2023-12-20T12:02:13;5.33;;;1.33;;
72235;SDS011;60146;52.498;13.462;2023-12-20T12:04:41;4.30;;;1.33;;
72235;SDS011;60146;52.498;13.462;2023-12-20T12:07:06;7.10;;;1.43;;
72235;SDS011;60146;52.498;13.462;2023-12-20T12:09:32;4.60;;;1.23;;
72235;SDS011;60146;52.498;13.462;2023-12-20T12:11:57;11.30;;;1.87;;
72235;SDS011;60146;52.498;13.462;2023-12-20T12:14:23;5.50;;;1.20;;
72235;SDS011;60146;52.498;13.462;2023-12-20T12:16:49;3.80;;;1.10;;
72235;SDS011;60146;52.498;13.462;2023-12-20T12:19:21;6.63;;;1.60;;
72235;SDS011;60146;52.498;13.462;2023-12-20T12:21:48;7.50;;;1.40;;
72235;SDS011;60146;52.498;13.462;2023-12-20T12:24:14;6.07;;;1.17;;
72235;SDS011;60146;52.498;13.462;2023-12-20T12:26:39;8.63;;;1.30;;
72235;SDS011;60146;52.498;13.462;2023-12-20T12:29:07;4.07;;;2.07;;
72235;SDS011;60146;52.498;13.462;2023-12-20T12:31:33;5.50;;;1.40;;
72235;SDS011;60146;52.498;13.462;2023-12-20T12:33:58;3.70;;;1.17;;
72235;SDS011;60146;52.498;13.462;2023-12-20T12:36:23;5.03;;;1.23;;
72235;SDS011;60146;52.498;13.462;2023-12-20T12:38:49;4.67;;;1.83;;
72235;SDS011;60146;52.498;13.462;2023-12-20T12:41:14;6.63;;;1.60;;
72235;SDS011;60146;52.498;13.462;2023-12-20T12:43:40;6.03;;;1.57;;
72235;SDS011;60146;52.498;13.462;2023-12-20T12:46:06;7.47;;;2.17;;
72235;SDS011;60146;52.498;13.462;2023-12-20T12:48:32;7.40;;;2.00;;
72235;SDS011;60146;52.498;13.462;2023-12-20T12:50:58;6.00;;;1.73;;
72235;SDS011;60146;52.498;13.462;2023-12-20T12:53:24;3.97;;;1.30;;
72235;SDS011;60146;52.498;13.462;2023-12-20T12:55:52;7.47;;;1.60;;
72235;SDS011;60146;52.498;13.462;2023-12-20T12:58:19;4.60;;;1.40;;
72235;SDS011;60146;52.498;13.462;2023-12-20T13:00:45;7.07;;;1.60;;
72235;SDS011;60146;52.498;13.462;2023-12-20T13:03:10;4.43;;;1.60;;
72235;SDS011;60146;52.498;13.462;2023-12-20T13:05:35;5.87;;;1.57;;
72235;SDS011;60146;52.498;13.462;2023-12-20T13:08:01;4.90;;;1.80;;
72235;SDS011;60146;52.498;13.462;2023-12-20T13:10:26;7.47;;;1.80;;
72235;SDS011;60146;52.498;13.462;2023-12-20T13:12:52;6.00;;;1.50;;
72235;SDS011;60146;52.498;13.462;2023-12-20T13:15:17;6.30;;;1.70;;
72235;SDS011;60146;52.498;13.462;2023-12-20T13:17:42;5.20;;;1.70;;
72235;SDS011;60146;52.498;13.462;2023-12-20T13:20:08;8.73;;;1.90;;
72235;SDS011;60146;52.498;13.462;2023-12-20T13:22:33;7.97;;;1.93;;
72235;SDS011;60146;52.498;13.462;2023-12-20T13:24:58;7.30;;;2.20;;
72235;SDS011;60146;52.498;13.462;2023-12-20T13:27:24;6.87;;;2.00;;
72235;SDS011;60146;52.498;13.462;2023-12-20T13:29:49;6.57;;;1.83;;
72235;SDS011;60146;52.498;13.462;2023-12-20T13:32:14;2.80;;;1.00;;
72235;SDS011;60146;52.498;13.462;2023-12-20T13:34:40;1.43;;;0.90;;
72235;SDS011;60146;52.498;13.462;2023-12-20T13:37:05;2.57;;;0.80;;
72235;SDS011;60146;52.498;13.462;2023-12-20T13:39:30;1.73;;;0.70;;
72235;SDS011;60146;52.498;13.462;2023-12-20T13:41:56;1.67;;;0.90;;
72235;SDS011;60146;52.498;13.462;2023-12-20T13:44:22;1.90;;;0.70;;
72235;SDS011;60146;52.498;13.462;2023-12-20T13:46:47;3.33;;;0.80;;
72235;SDS011;60146;52.498;13.462;2023-12-20T13:49:14;2.70;;;0.80;;
72235;SDS011;60146;52.498;13.462;2023-12-20T13:51:39;2.13;;;0.77;;
72235;SDS011;60146;52.498;13.462;2023-12-20T13:54:05;3.33;;;0.87;;
72235;SDS011;60146;52.498;13.462;2023-12-20T13:56:30;3.40;;;0.83;;
72235;SDS011;60146;52.498;13.462;2023-12-20T13:58:56;1.70;;;0.60;;
72235;SDS011;60146;52.498;13.462;2023-12-20T14:01:21;1.07;;;0.70;;
72235;SDS011;60146;52.498;13.462;2023-12-20T14:03:46;6.27;;;1.00;;
72235;SDS011;60146;52.498;13.462;2023-12-20T14:06:12;4.53;;;1.13;;
72235;SDS011;60146;52.498;13.462;2023-12-20T14:08:38;2.03;;;0.90;;
72235;SDS011;60146;52.498;13.462;2023-12-20T14:11:04;3.27;;;0.87;;
72235;SDS011;60146;52.498;13.462;2023-12-20T14:13:29;2.67;;;1.00;;
72235;SDS011;60146;52.498;13.462;2023-12-20T14:15:54;2.30;;;0.90;;
72235;SDS011;60146;52.498;13.462;2023-12-20T14:18:20;3.70;;;1.20;;
72235;SDS011;60146;52.498;13.462;2023-12-20T14:20:45;2.97;;;0.83;;
72235;SDS011;60146;52.498;13.462;2023-12-20T14:23:12;1.60;;;0.90;;
72235;SDS011;60146;52.498;13.462;2023-12-20T14:25:40;3.23;;;1.10;;
72235;SDS011;60146;52.498;13.462;2023-12-20T14:28:06;0.83;;;0.70;;
72235;SDS011;60146;52.498;13.462;2023-12-20T14:30:31;0.70;;;0.50;;
72235;SDS011;60146;52.498;13.462;2023-12-20T14:32:57;0.80;;;0.50;;